sensor_id;sensor_type;location;lat;lon;timestamp;P1;durP1;ratioP1;P2;durP2;ratioP2
5876;SDS011;2964;42.144;24.730;2022-12-29T00:02:21;20.17;;;15.73;;
5876;SDS011;2964;42.144;24.730;2022-12-29T00:04:48;21.87;;;15.70;;
5876;SDS011;2964;42.144;24.730;2022-12-29T00:07:15;21.67;;;15.13;;
5876;SDS011;2964;42.144;24.730;2022-12-29T00:09:42;27.87;;;16.77;;
5876;SDS011;2964;42.144;24.730;2022-12-29T00:12:09;18.43;;;15.50;;
5876;SDS011;2964;42.144;24.730;2022-12-29T00:14:37;30.20;;;17.40;;
5876;SDS011;2964;42.144;24.730;2022-12-29T00:17:21;22.00;;;14.87;;
5876;SDS011;2964;42.144;24.730;2022-12-29T00:19:48;26.57;;;15.67;;
5876;SDS011;2964;42.144;24.730;2022-12-29T00:22:32;22.00;;;16.17;;
5876;SDS011;2964;42.144;24.730;2022-12-29T00:25:16;31.27;;;16.83;;
5876;SDS011;2964;42.144;24.730;2022-12-29T00:28:04;22.30;;;15.83;;
5876;SDS011;2964;42.144;24.730;2022-12-29T00:30:49;25.47;;;16.23;;
5876;SDS011;2964;42.144;24.730;2022-12-29T00:33:33;20.90;;;15.97;;
5876;SDS011;2964;42.144;24.730;2022-12-29T00:36:18;20.63;;;15.40;;
5876;SDS011;2964;42.144;24.730;2022-12-29T00:38:48;20.70;;;15.40;;
5876;SDS011;2964;42.144;24.730;2022-12-29T00:41:34;32.40;;;16.90;;
5876;SDS011;2964;42.144;24.730;2022-12-29T00:44:18;24.90;;;15.80;;
5876;SDS011;2964;42.144;24.730;2022-12-29T00:46:46;20.87;;;15.83;;
5876;SDS011;2964;42.144;24.730;2022-12-29T00:49:13;23.97;;;15.80;;
5876;SDS011;2964;42.144;24.730;2022-12-29T00:51:59;24.83;;;16.70;;
5876;SDS011;2964;42.144;24.730;2022-12-29T00:54:28;21.03;;;15.77;;
5876;SDS011;2964;42.144;24.730;2022-12-29T00:56:55;19.27;;;14.77;;
5876;SDS011;2964;42.144;24.730;2022-12-29T00:59:22;18.67;;;14.17;;
5876;SDS011;2964;42.144;24.730;2022-12-29T01:01:51;22.13;;;16.03;;
5876;SDS011;2964;42.144;24.730;2022-12-29T01:04:19;25.57;;;16.57;;
5876;SDS011;2964;42.144;24.730;2022-12-29T01:06:46;29.50;;;16.40;;
5876;SDS011;2964;42.144;24.730;2022-12-29T01:09:14;30.23;;;17.63;;
5876;SDS011;2964;42.144;24.730;2022-12-29T01:11:58;32.30;;;18.20;;
5876;SDS011;2964;42.144;24.730;2022-12-29T01:14:25;37.67;;;17.80;;
5876;SDS011;2964;42.144;24.730;2022-12-29T01:16:54;32.00;;;19.20;;
5876;SDS011;2964;42.144;24.730;2022-12-29T01:19:21;28.77;;;17.03;;
5876;SDS011;2964;42.144;24.730;2022-12-29T01:21:48;27.57;;;17.43;;
5876;SDS011;2964;42.144;24.730;2022-12-29T01:24:15;37.77;;;18.23;;
5876;SDS011;2964;42.144;24.730;2022-12-29T01:26:44;37.23;;;18.87;;
5876;SDS011;2964;42.144;24.730;2022-12-29T01:29:11;25.37;;;16.67;;
5876;SDS011;2964;42.144;24.730;2022-12-29T01:31:38;32.90;;;18.50;;
5876;SDS011;2964;42.144;24.730;2022-12-29T01:34:06;48.50;;;18.40;;
5876;SDS011;2964;42.144;24.730;2022-12-29T01:36:33;33.43;;;17.03;;
5876;SDS011;2964;42.144;24.730;2022-12-29T01:38:59;30.03;;;17.27;;
5876;SDS011;2964;42.144;24.730;2022-12-29T01:41:26;27.30;;;16.87;;
5876;SDS011;2964;42.144;24.730;2022-12-29T01:43:53;25.97;;;16.27;;
5876;SDS011;2964;42.144;24.730;2022-12-29T01:46:22;25.30;;;16.70;;
5876;SDS011;2964;42.144;24.730;2022-12-29T01:48:55;29.10;;;17.43;;
5876;SDS011;2964;42.144;24.730;2022-12-29T01:51:27;23.47;;;17.13;;
5876;SDS011;2964;42.144;24.730;2022-12-29T01:53:57;23.97;;;17.30;;
5876;SDS011;2964;42.144;24.730;2022-12-29T01:56:28;30.13;;;16.00;;
5876;SDS011;2964;42.144;24.730;2022-12-29T01:58:57;26.13;;;17.83;;
5876;SDS011;2964;42.144;24.730;2022-12-29T02:01:29;28.33;;;18.13;;
5876;SDS011;2964;42.144;24.730;2022-12-29T02:03:56;22.70;;;16.47;;
5876;SDS011;2964;42.144;24.730;2022-12-29T02:06:24;23.87;;;16.20;;
5876;SDS011;2964;42.144;24.730;2022-12-29T02:08:55;29.00;;;17.17;;
5876;SDS011;2964;42.144;24.730;2022-12-29T02:11:23;22.97;;;17.30;;
5876;SDS011;2964;42.144;24.730;2022-12-29T02:13:52;25.77;;;18.03;;
5876;SDS011;2964;42.144;24.730;2022-12-29T02:16:22;24.47;;;18.33;;
5876;SDS011;2964;42.144;24.730;2022-12-29T02:19:04;25.63;;;18.33;;
5876;SDS011;2964;42.144;24.730;2022-12-29T02:22:04;23.50;;;17.60;;
5876;SDS011;2964;42.144;24.730;2022-12-29T02:24:49;22.57;;;17.57;;
5876;SDS011;2964;42.144;24.730;2022-12-29T02:30:42;26.83;;;18.30;;
5876;SDS011;2964;42.144;24.730;2022-12-29T02:33:22;27.20;;;18.93;;
5876;SDS011;2964;42.144;24.730;2022-12-29T02:35:57;25.37;;;17.83;;
5876;SDS011;2964;42.144;24.730;2022-12-29T02:38:38;24.40;;;18.20;;
5876;SDS011;2964;42.144;24.730;2022-12-29T02:41:15;29.90;;;18.60;;
5876;SDS011;2964;42.144;24.730;2022-12-29T02:43:48;29.80;;;18.77;;
5876;SDS011;2964;42.144;24.730;2022-12-29T02:46:20;27.33;;;17.83;;
5876;SDS011;2964;42.144;24.730;2022-12-29T02:48:54;23.93;;;17.93;;
5876;SDS011;2964;42.144;24.730;2022-12-29T02:51:28;32.67;;;19.37;;
5876;SDS011;2964;42.144;24.730;2022-12-29T02:53:59;31.37;;;20.60;;
5876;SDS011;2964;42.144;24.730;2022-12-29T02:56:43;30.13;;;20.60;;
5876;SDS011;2964;42.144;24.730;2022-12-29T02:59:10;30.97;;;19.77;;
5876;SDS011;2964;42.144;24.730;2022-12-29T03:01:44;30.97;;;19.97;;
5876;SDS011;2964;42.144;24.730;2022-12-29T03:04:50;26.53;;;18.33;;
5876;SDS011;2964;42.144;24.730;2022-12-29T03:07:37;30.40;;;20.90;;
5876;SDS011;2964;42.144;24.730;2022-12-29T03:10:17;31.97;;;21.80;;
5876;SDS011;2964;42.144;24.730;2022-12-29T03:12:56;31.50;;;22.03;;
5876;SDS011;2964;42.144;24.730;2022-12-29T03:15:50;33.10;;;21.33;;
5876;SDS011;2964;42.144;24.730;2022-12-29T03:18:37;33.20;;;22.23;;
5876;SDS011;2964;42.144;24.730;2022-12-29T03:21:09;31.97;;;23.00;;
5876;SDS011;2964;42.144;24.730;2022-12-29T03:23:41;36.03;;;22.90;;
5876;SDS011;2964;42.144;24.730;2022-12-29T03:26:12;39.33;;;25.53;;
5876;SDS011;2964;42.144;24.730;2022-12-29T03:28:43;48.87;;;26.47;;
5876;SDS011;2964;42.144;24.730;2022-12-29T03:31:14;37.53;;;25.00;;
5876;SDS011;2964;42.144;24.730;2022-12-29T03:33:44;42.80;;;25.47;;
5876;SDS011;2964;42.144;24.730;2022-12-29T03:36:15;40.60;;;27.07;;
5876;SDS011;2964;42.144;24.730;2022-12-29T03:38:48;41.67;;;26.40;;
5876;SDS011;2964;42.144;24.730;2022-12-29T03:41:20;37.90;;;26.83;;
5876;SDS011;2964;42.144;24.730;2022-12-29T03:43:51;38.20;;;26.20;;
5876;SDS011;2964;42.144;24.730;2022-12-29T03:46:17;45.17;;;27.30;;
5876;SDS011;2964;42.144;24.730;2022-12-29T03:48:45;49.17;;;29.03;;
5876;SDS011;2964;42.144;24.730;2022-12-29T03:51:12;42.77;;;29.63;;
5876;SDS011;2964;42.144;24.730;2022-12-29T03:53:38;43.63;;;27.73;;
5876;SDS011;2964;42.144;24.730;2022-12-29T03:56:05;46.67;;;29.07;;
5876;SDS011;2964;42.144;24.730;2022-12-29T03:58:32;43.17;;;28.90;;
5876;SDS011;2964;42.144;24.730;2022-12-29T04:00:59;51.53;;;30.50;;
5876;SDS011;2964;42.144;24.730;2022-12-29T04:03:25;49.50;;;30.43;;
5876;SDS011;2964;42.144;24.730;2022-12-29T04:05:53;41.93;;;29.57;;
5876;SDS011;2964;42.144;24.730;2022-12-29T04:08:20;44.67;;;29.00;;
5876;SDS011;2964;42.144;24.730;2022-12-29T04:10:47;48.87;;;29.23;;
5876;SDS011;2964;42.144;24.730;2022-12-29T04:13:14;49.30;;;31.30;;
5876;SDS011;2964;42.144;24.730;2022-12-29T04:15:42;44.40;;;29.27;;
5876;SDS011;2964;42.144;24.730;2022-12-29T04:18:10;55.03;;;30.40;;
5876;SDS011;2964;42.144;24.730;2022-12-29T04:20:37;53.13;;;30.10;;
5876;SDS011;2964;42.144;24.730;2022-12-29T04:23:22;45.80;;;29.47;;
5876;SDS011;2964;42.144;24.730;2022-12-29T04:25:49;48.03;;;28.17;;
5876;SDS011;2964;42.144;24.730;2022-12-29T04:28:16;45.30;;;29.93;;
5876;SDS011;2964;42.144;24.730;2022-12-29T04:30:42;55.30;;;30.43;;
5876;SDS011;2964;42.144;24.730;2022-12-29T04:33:10;43.50;;;28.63;;
5876;SDS011;2964;42.144;24.730;2022-12-29T04:35:36;46.57;;;30.03;;
5876;SDS011;2964;42.144;24.730;2022-12-29T04:38:03;45.40;;;29.73;;
5876;SDS011;2964;42.144;24.730;2022-12-29T04:40:31;51.23;;;30.70;;
5876;SDS011;2964;42.144;24.730;2022-12-29T04:42:58;49.07;;;30.90;;
5876;SDS011;2964;42.144;24.730;2022-12-29T04:45:25;48.47;;;33.20;;
5876;SDS011;2964;42.144;24.730;2022-12-29T04:47:51;54.83;;;35.33;;
5876;SDS011;2964;42.144;24.730;2022-12-29T04:50:18;57.00;;;36.60;;
5876;SDS011;2964;42.144;24.730;2022-12-29T04:52:45;53.30;;;35.40;;
5876;SDS011;2964;42.144;24.730;2022-12-29T04:55:12;56.67;;;34.83;;
5876;SDS011;2964;42.144;24.730;2022-12-29T04:57:40;55.70;;;33.47;;
5876;SDS011;2964;42.144;24.730;2022-12-29T05:00:07;62.70;;;34.23;;
5876;SDS011;2964;42.144;24.730;2022-12-29T05:02:35;57.60;;;34.93;;
5876;SDS011;2964;42.144;24.730;2022-12-29T05:05:02;59.07;;;36.90;;
5876;SDS011;2964;42.144;24.730;2022-12-29T05:07:28;61.13;;;35.83;;
5876;SDS011;2964;42.144;24.730;2022-12-29T05:09:55;63.37;;;35.70;;
5876;SDS011;2964;42.144;24.730;2022-12-29T05:12:22;71.77;;;37.53;;
5876;SDS011;2964;42.144;24.730;2022-12-29T05:14:50;61.47;;;36.40;;
5876;SDS011;2964;42.144;24.730;2022-12-29T05:20:38;46.20;;;31.30;;
5876;SDS011;2964;42.144;24.730;2022-12-29T05:23:05;58.43;;;35.10;;
5876;SDS011;2964;42.144;24.730;2022-12-29T05:25:32;56.13;;;34.00;;
5876;SDS011;2964;42.144;24.730;2022-12-29T05:27:58;56.73;;;31.87;;
5876;SDS011;2964;42.144;24.730;2022-12-29T05:30:27;52.57;;;32.17;;
5876;SDS011;2964;42.144;24.730;2022-12-29T05:32:53;59.77;;;34.33;;
5876;SDS011;2964;42.144;24.730;2022-12-29T05:35:20;50.67;;;32.83;;
5876;SDS011;2964;42.144;24.730;2022-12-29T05:37:47;62.30;;;34.57;;
5876;SDS011;2964;42.144;24.730;2022-12-29T05:40:13;58.40;;;35.60;;
5876;SDS011;2964;42.144;24.730;2022-12-29T05:42:40;54.00;;;32.60;;
5876;SDS011;2964;42.144;24.730;2022-12-29T05:45:07;61.07;;;35.23;;
5876;SDS011;2964;42.144;24.730;2022-12-29T05:47:36;61.30;;;35.17;;
5876;SDS011;2964;42.144;24.730;2022-12-29T05:50:03;69.20;;;36.57;;
5876;SDS011;2964;42.144;24.730;2022-12-29T05:52:42;71.83;;;38.37;;
5876;SDS011;2964;42.144;24.730;2022-12-29T05:55:09;66.23;;;36.63;;
5876;SDS011;2964;42.144;24.730;2022-12-29T05:57:36;71.93;;;34.67;;
5876;SDS011;2964;42.144;24.730;2022-12-29T06:00:03;67.53;;;36.90;;
5876;SDS011;2964;42.144;24.730;2022-12-29T06:02:30;65.60;;;36.50;;
5876;SDS011;2964;42.144;24.730;2022-12-29T06:04:58;65.03;;;36.00;;
5876;SDS011;2964;42.144;24.730;2022-12-29T06:07:25;63.23;;;37.00;;
5876;SDS011;2964;42.144;24.730;2022-12-29T06:09:52;66.43;;;36.80;;
5876;SDS011;2964;42.144;24.730;2022-12-29T06:12:18;62.00;;;37.27;;
5876;SDS011;2964;42.144;24.730;2022-12-29T06:14:47;80.43;;;37.77;;
5876;SDS011;2964;42.144;24.730;2022-12-29T06:17:14;66.23;;;37.93;;
5876;SDS011;2964;42.144;24.730;2022-12-29T06:19:41;80.67;;;38.57;;
5876;SDS011;2964;42.144;24.730;2022-12-29T06:22:10;71.93;;;39.13;;
5876;SDS011;2964;42.144;24.730;2022-12-29T06:24:38;79.47;;;38.87;;
5876;SDS011;2964;42.144;24.730;2022-12-29T06:27:05;68.50;;;39.30;;
5876;SDS011;2964;42.144;24.730;2022-12-29T06:29:31;66.67;;;37.07;;
5876;SDS011;2964;42.144;24.730;2022-12-29T06:32:00;67.40;;;36.60;;
5876;SDS011;2964;42.144;24.730;2022-12-29T06:34:26;68.00;;;35.30;;
5876;SDS011;2964;42.144;24.730;2022-12-29T06:36:53;67.00;;;38.00;;
5876;SDS011;2964;42.144;24.730;2022-12-29T06:39:21;67.30;;;38.10;;
5876;SDS011;2964;42.144;24.730;2022-12-29T06:41:49;71.93;;;36.43;;
5876;SDS011;2964;42.144;24.730;2022-12-29T06:44:18;65.40;;;36.73;;
5876;SDS011;2964;42.144;24.730;2022-12-29T06:46:44;66.03;;;37.83;;
5876;SDS011;2964;42.144;24.730;2022-12-29T06:49:11;67.17;;;38.50;;
5876;SDS011;2964;42.144;24.730;2022-12-29T06:51:38;65.97;;;37.50;;
5876;SDS011;2964;42.144;24.730;2022-12-29T06:54:05;69.00;;;39.37;;
5876;SDS011;2964;42.144;24.730;2022-12-29T06:56:33;69.07;;;39.40;;
5876;SDS011;2964;42.144;24.730;2022-12-29T06:59:00;76.13;;;37.67;;
5876;SDS011;2964;42.144;24.730;2022-12-29T07:01:26;62.57;;;36.13;;
5876;SDS011;2964;42.144;24.730;2022-12-29T07:03:53;59.13;;;33.67;;
5876;SDS011;2964;42.144;24.730;2022-12-29T07:06:20;51.10;;;31.63;;
5876;SDS011;2964;42.144;24.730;2022-12-29T07:08:47;55.03;;;32.13;;
5876;SDS011;2964;42.144;24.730;2022-12-29T07:11:14;49.63;;;29.90;;
5876;SDS011;2964;42.144;24.730;2022-12-29T07:13:42;55.27;;;32.00;;
5876;SDS011;2964;42.144;24.730;2022-12-29T07:16:09;58.87;;;32.47;;
5876;SDS011;2964;42.144;24.730;2022-12-29T07:18:36;49.80;;;31.03;;
5876;SDS011;2964;42.144;24.730;2022-12-29T07:21:03;47.33;;;30.77;;
5876;SDS011;2964;42.144;24.730;2022-12-29T07:23:30;47.63;;;31.90;;
5876;SDS011;2964;42.144;24.730;2022-12-29T07:26:00;49.70;;;31.70;;
5876;SDS011;2964;42.144;24.730;2022-12-29T07:28:27;61.63;;;35.50;;
5876;SDS011;2964;42.144;24.730;2022-12-29T07:30:56;62.63;;;35.63;;
5876;SDS011;2964;42.144;24.730;2022-12-29T07:33:22;71.03;;;36.63;;
5876;SDS011;2964;42.144;24.730;2022-12-29T07:35:49;69.47;;;37.27;;
5876;SDS011;2964;42.144;24.730;2022-12-29T07:38:16;61.77;;;33.60;;
5876;SDS011;2964;42.144;24.730;2022-12-29T07:40:43;48.27;;;32.30;;
5876;SDS011;2964;42.144;24.730;2022-12-29T07:43:09;44.63;;;29.67;;
5876;SDS011;2964;42.144;24.730;2022-12-29T07:45:36;39.60;;;28.13;;
5876;SDS011;2964;42.144;24.730;2022-12-29T07:48:05;44.37;;;27.13;;
5876;SDS011;2964;42.144;24.730;2022-12-29T07:50:33;38.80;;;25.97;;
5876;SDS011;2964;42.144;24.730;2022-12-29T07:53:00;41.07;;;26.07;;
5876;SDS011;2964;42.144;24.730;2022-12-29T07:55:27;39.77;;;26.23;;
5876;SDS011;2964;42.144;24.730;2022-12-29T07:57:53;36.77;;;26.30;;
5876;SDS011;2964;42.144;24.730;2022-12-29T08:00:20;38.77;;;25.37;;
5876;SDS011;2964;42.144;24.730;2022-12-29T08:02:47;42.50;;;25.67;;
5876;SDS011;2964;42.144;24.730;2022-12-29T08:05:16;42.73;;;26.03;;
5876;SDS011;2964;42.144;24.730;2022-12-29T08:07:43;39.87;;;25.37;;
5876;SDS011;2964;42.144;24.730;2022-12-29T08:10:10;33.77;;;24.07;;
5876;SDS011;2964;42.144;24.730;2022-12-29T08:12:37;44.83;;;25.30;;
5876;SDS011;2964;42.144;24.730;2022-12-29T08:15:05;34.17;;;23.17;;
5876;SDS011;2964;42.144;24.730;2022-12-29T08:17:34;34.87;;;23.43;;
5876;SDS011;2964;42.144;24.730;2022-12-29T08:20:01;35.50;;;24.60;;
5876;SDS011;2964;42.144;24.730;2022-12-29T08:22:29;34.67;;;23.53;;
5876;SDS011;2964;42.144;24.730;2022-12-29T08:24:56;33.97;;;24.20;;
5876;SDS011;2964;42.144;24.730;2022-12-29T08:27:22;31.57;;;23.37;;
5876;SDS011;2964;42.144;24.730;2022-12-29T08:29:49;50.73;;;25.97;;
5876;SDS011;2964;42.144;24.730;2022-12-29T08:32:16;36.03;;;27.20;;
5876;SDS011;2964;42.144;24.730;2022-12-29T08:34:43;34.30;;;25.90;;
5876;SDS011;2964;42.144;24.730;2022-12-29T08:37:10;38.07;;;27.27;;
5876;SDS011;2964;42.144;24.730;2022-12-29T08:39:41;42.27;;;26.30;;
5876;SDS011;2964;42.144;24.730;2022-12-29T08:42:08;42.40;;;27.40;;
5876;SDS011;2964;42.144;24.730;2022-12-29T08:44:41;40.77;;;26.23;;
5876;SDS011;2964;42.144;24.730;2022-12-29T08:47:17;38.30;;;25.63;;
5876;SDS011;2964;42.144;24.730;2022-12-29T08:49:53;36.73;;;25.97;;
5876;SDS011;2964;42.144;24.730;2022-12-29T08:52:26;36.07;;;25.60;;
5876;SDS011;2964;42.144;24.730;2022-12-29T08:55:06;39.27;;;28.13;;
5876;SDS011;2964;42.144;24.730;2022-12-29T08:57:33;36.13;;;26.70;;
5876;SDS011;2964;42.144;24.730;2022-12-29T09:00:00;32.97;;;25.73;;
5876;SDS011;2964;42.144;24.730;2022-12-29T09:02:27;40.33;;;27.53;;
5876;SDS011;2964;42.144;24.730;2022-12-29T09:04:53;40.80;;;27.33;;
5876;SDS011;2964;42.144;24.730;2022-12-29T09:07:22;35.40;;;26.27;;
5876;SDS011;2964;42.144;24.730;2022-12-29T09:09:49;33.43;;;24.87;;
5876;SDS011;2964;42.144;24.730;2022-12-29T09:12:17;33.53;;;24.53;;
5876;SDS011;2964;42.144;24.730;2022-12-29T09:14:45;35.83;;;25.17;;
5876;SDS011;2964;42.144;24.730;2022-12-29T09:17:12;29.63;;;23.37;;
5876;SDS011;2964;42.144;24.730;2022-12-29T09:19:56;40.17;;;23.03;;
5876;SDS011;2964;42.144;24.730;2022-12-29T09:22:23;29.47;;;21.17;;
5876;SDS011;2964;42.144;24.730;2022-12-29T09:24:50;34.33;;;23.43;;
5876;SDS011;2964;42.144;24.730;2022-12-29T09:27:17;36.77;;;22.50;;
5876;SDS011;2964;42.144;24.730;2022-12-29T09:29:44;28.67;;;21.10;;
5876;SDS011;2964;42.144;24.730;2022-12-29T09:32:11;30.77;;;22.90;;
5876;SDS011;2964;42.144;24.730;2022-12-29T09:34:37;27.73;;;21.70;;
5876;SDS011;2964;42.144;24.730;2022-12-29T09:37:04;29.43;;;20.67;;
5876;SDS011;2964;42.144;24.730;2022-12-29T09:39:31;25.77;;;19.93;;
5876;SDS011;2964;42.144;24.730;2022-12-29T09:42:00;30.87;;;20.87;;
5876;SDS011;2964;42.144;24.730;2022-12-29T09:44:38;57.67;;;22.10;;
5876;SDS011;2964;42.144;24.730;2022-12-29T09:47:14;26.20;;;21.43;;
5876;SDS011;2964;42.144;24.730;2022-12-29T09:49:44;28.80;;;20.13;;
5876;SDS011;2964;42.144;24.730;2022-12-29T09:52:15;26.13;;;20.53;;
5876;SDS011;2964;42.144;24.730;2022-12-29T09:54:57;22.63;;;20.27;;
5876;SDS011;2964;42.144;24.730;2022-12-29T09:57:29;24.20;;;19.80;;
5876;SDS011;2964;42.144;24.730;2022-12-29T10:00:03;29.30;;;21.20;;
5876;SDS011;2964;42.144;24.730;2022-12-29T10:02:37;26.67;;;21.53;;
5876;SDS011;2964;42.144;24.730;2022-12-29T10:05:13;23.93;;;21.23;;
5876;SDS011;2964;42.144;24.730;2022-12-29T10:07:48;29.27;;;20.13;;
5876;SDS011;2964;42.144;24.730;2022-12-29T10:10:27;23.67;;;19.57;;
5876;SDS011;2964;42.144;24.730;2022-12-29T10:13:01;23.97;;;20.30;;
5876;SDS011;2964;42.144;24.730;2022-12-29T10:15:43;28.07;;;21.40;;
5876;SDS011;2964;42.144;24.730;2022-12-29T10:18:32;27.00;;;20.73;;
5876;SDS011;2964;42.144;24.730;2022-12-29T10:21:15;24.93;;;21.40;;
5876;SDS011;2964;42.144;24.730;2022-12-29T10:23:49;29.40;;;21.20;;
5876;SDS011;2964;42.144;24.730;2022-12-29T10:26:18;27.13;;;20.33;;
5876;SDS011;2964;42.144;24.730;2022-12-29T10:28:48;23.07;;;20.57;;
5876;SDS011;2964;42.144;24.730;2022-12-29T10:31:20;31.40;;;22.30;;
5876;SDS011;2964;42.144;24.730;2022-12-29T10:33:49;30.17;;;21.10;;
5876;SDS011;2964;42.144;24.730;2022-12-29T10:36:20;30.27;;;19.97;;
5876;SDS011;2964;42.144;24.730;2022-12-29T10:38:54;27.33;;;20.00;;
5876;SDS011;2964;42.144;24.730;2022-12-29T10:41:32;25.77;;;21.63;;
5876;SDS011;2964;42.144;24.730;2022-12-29T10:44:04;28.67;;;22.27;;
5876;SDS011;2964;42.144;24.730;2022-12-29T10:46:33;31.40;;;22.00;;
5876;SDS011;2964;42.144;24.730;2022-12-29T10:49:02;32.47;;;20.83;;
5876;SDS011;2964;42.144;24.730;2022-12-29T10:51:31;39.60;;;23.97;;
5876;SDS011;2964;42.144;24.730;2022-12-29T10:54:06;28.87;;;20.70;;
5876;SDS011;2964;42.144;24.730;2022-12-29T10:56:40;31.73;;;24.73;;
5876;SDS011;2964;42.144;24.730;2022-12-29T10:59:11;32.93;;;22.93;;
5876;SDS011;2964;42.144;24.730;2022-12-29T11:01:46;28.77;;;23.77;;
5876;SDS011;2964;42.144;24.730;2022-12-29T11:04:25;31.30;;;22.57;;
5876;SDS011;2964;42.144;24.730;2022-12-29T11:07:09;35.50;;;24.03;;
5876;SDS011;2964;42.144;24.730;2022-12-29T11:09:38;35.33;;;23.57;;
5876;SDS011;2964;42.144;24.730;2022-12-29T11:15:10;32.27;;;23.40;;
5876;SDS011;2964;42.144;24.730;2022-12-29T11:17:44;38.73;;;24.20;;
5876;SDS011;2964;42.144;24.730;2022-12-29T11:20:19;41.83;;;25.17;;
5876;SDS011;2964;42.144;24.730;2022-12-29T11:22:57;35.70;;;27.67;;
5876;SDS011;2964;42.144;24.730;2022-12-29T11:25:24;32.73;;;23.27;;
5876;SDS011;2964;42.144;24.730;2022-12-29T11:28:02;39.30;;;24.90;;
5876;SDS011;2964;42.144;24.730;2022-12-29T11:30:40;39.67;;;25.00;;
5876;SDS011;2964;42.144;24.730;2022-12-29T11:33:13;36.70;;;24.13;;
5876;SDS011;2964;42.144;24.730;2022-12-29T11:35:42;38.57;;;24.90;;
5876;SDS011;2964;42.144;24.730;2022-12-29T11:38:16;39.63;;;25.57;;
5876;SDS011;2964;42.144;24.730;2022-12-29T11:40:46;37.83;;;25.50;;
5876;SDS011;2964;42.144;24.730;2022-12-29T11:43:17;34.87;;;24.57;;
5876;SDS011;2964;42.144;24.730;2022-12-29T11:45:52;34.57;;;24.23;;
5876;SDS011;2964;42.144;24.730;2022-12-29T11:48:23;37.57;;;25.60;;
5876;SDS011;2964;42.144;24.730;2022-12-29T11:50:57;34.90;;;25.33;;
5876;SDS011;2964;42.144;24.730;2022-12-29T11:53:26;35.63;;;25.00;;
5876;SDS011;2964;42.144;24.730;2022-12-29T11:55:55;35.33;;;25.90;;
5876;SDS011;2964;42.144;24.730;2022-12-29T11:58:28;39.43;;;25.13;;
5876;SDS011;2964;42.144;24.730;2022-12-29T12:00:57;34.93;;;25.87;;
5876;SDS011;2964;42.144;24.730;2022-12-29T12:03:31;35.33;;;24.67;;
5876;SDS011;2964;42.144;24.730;2022-12-29T12:06:01;38.30;;;26.20;;
5876;SDS011;2964;42.144;24.730;2022-12-29T12:08:31;38.37;;;26.03;;
5876;SDS011;2964;42.144;24.730;2022-12-29T12:11:04;41.27;;;26.53;;
5876;SDS011;2964;42.144;24.730;2022-12-29T12:13:37;35.47;;;25.70;;
5876;SDS011;2964;42.144;24.730;2022-12-29T12:16:09;41.40;;;27.27;;
5876;SDS011;2964;42.144;24.730;2022-12-29T12:18:44;34.27;;;25.47;;
5876;SDS011;2964;42.144;24.730;2022-12-29T12:21:15;36.30;;;27.07;;
5876;SDS011;2964;42.144;24.730;2022-12-29T12:23:56;34.60;;;25.93;;
5876;SDS011;2964;42.144;24.730;2022-12-29T12:26:31;40.80;;;26.37;;
5876;SDS011;2964;42.144;24.730;2022-12-29T12:29:04;33.43;;;26.20;;
5876;SDS011;2964;42.144;24.730;2022-12-29T12:31:41;38.10;;;26.93;;
5876;SDS011;2964;42.144;24.730;2022-12-29T12:34:15;38.47;;;25.47;;
5876;SDS011;2964;42.144;24.730;2022-12-29T12:37:02;42.60;;;27.07;;
5876;SDS011;2964;42.144;24.730;2022-12-29T12:39:44;42.17;;;26.43;;
5876;SDS011;2964;42.144;24.730;2022-12-29T12:42:30;41.33;;;27.10;;
5876;SDS011;2964;42.144;24.730;2022-12-29T12:45:17;53.20;;;28.47;;
5876;SDS011;2964;42.144;24.730;2022-12-29T12:47:59;37.27;;;27.33;;
5876;SDS011;2964;42.144;24.730;2022-12-29T12:50:40;36.77;;;25.87;;
5876;SDS011;2964;42.144;24.730;2022-12-29T12:53:22;41.37;;;27.50;;
5876;SDS011;2964;42.144;24.730;2022-12-29T12:55:59;37.80;;;26.63;;
5876;SDS011;2964;42.144;24.730;2022-12-29T12:58:40;37.70;;;25.63;;
5876;SDS011;2964;42.144;24.730;2022-12-29T13:01:17;41.47;;;28.93;;
5876;SDS011;2964;42.144;24.730;2022-12-29T13:04:12;36.27;;;26.60;;
5876;SDS011;2964;42.144;24.730;2022-12-29T13:07:07;41.43;;;26.50;;
5876;SDS011;2964;42.144;24.730;2022-12-29T13:09:48;41.97;;;27.00;;
5876;SDS011;2964;42.144;24.730;2022-12-29T13:12:29;45.20;;;29.63;;
5876;SDS011;2964;42.144;24.730;2022-12-29T13:15:07;42.70;;;27.10;;
5876;SDS011;2964;42.144;24.730;2022-12-29T13:17:49;35.60;;;25.97;;
5876;SDS011;2964;42.144;24.730;2022-12-29T13:20:31;46.00;;;26.23;;
5876;SDS011;2964;42.144;24.730;2022-12-29T13:23:08;40.00;;;26.83;;
5876;SDS011;2964;42.144;24.730;2022-12-29T13:25:44;35.37;;;26.10;;
5876;SDS011;2964;42.144;24.730;2022-12-29T13:28:19;45.10;;;28.87;;
5876;SDS011;2964;42.144;24.730;2022-12-29T13:30:53;42.13;;;26.03;;
5876;SDS011;2964;42.144;24.730;2022-12-29T13:33:28;37.43;;;25.60;;
5876;SDS011;2964;42.144;24.730;2022-12-29T13:36:07;39.67;;;27.07;;
5876;SDS011;2964;42.144;24.730;2022-12-29T13:38:43;52.53;;;25.77;;
5876;SDS011;2964;42.144;24.730;2022-12-29T13:41:14;37.30;;;26.13;;
5876;SDS011;2964;42.144;24.730;2022-12-29T13:43:45;35.97;;;25.73;;
5876;SDS011;2964;42.144;24.730;2022-12-29T13:46:16;35.63;;;26.80;;
5876;SDS011;2964;42.144;24.730;2022-12-29T13:48:49;34.97;;;25.63;;
5876;SDS011;2964;42.144;24.730;2022-12-29T13:51:19;40.70;;;26.00;;
5876;SDS011;2964;42.144;24.730;2022-12-29T13:53:54;39.03;;;24.00;;
5876;SDS011;2964;42.144;24.730;2022-12-29T13:56:31;37.10;;;24.80;;
5876;SDS011;2964;42.144;24.730;2022-12-29T13:59:04;35.47;;;23.53;;
5876;SDS011;2964;42.144;24.730;2022-12-29T14:01:35;30.87;;;22.87;;
5876;SDS011;2964;42.144;24.730;2022-12-29T14:04:09;30.37;;;22.33;;
5876;SDS011;2964;42.144;24.730;2022-12-29T14:06:37;33.10;;;23.83;;
5876;SDS011;2964;42.144;24.730;2022-12-29T14:12:00;32.53;;;24.90;;
5876;SDS011;2964;42.144;24.730;2022-12-29T14:14:27;34.83;;;25.30;;
5876;SDS011;2964;42.144;24.730;2022-12-29T14:17:01;34.80;;;24.73;;
5876;SDS011;2964;42.144;24.730;2022-12-29T14:19:37;36.53;;;26.77;;
5876;SDS011;2964;42.144;24.730;2022-12-29T14:22:06;42.97;;;26.27;;
5876;SDS011;2964;42.144;24.730;2022-12-29T14:24:42;41.13;;;26.33;;
5876;SDS011;2964;42.144;24.730;2022-12-29T14:33:14;35.13;;;25.93;;
5876;SDS011;2964;42.144;24.730;2022-12-29T14:35:43;35.20;;;25.20;;
5876;SDS011;2964;42.144;24.730;2022-12-29T14:38:18;42.17;;;27.30;;
5876;SDS011;2964;42.144;24.730;2022-12-29T14:40:49;39.23;;;26.63;;
5876;SDS011;2964;42.144;24.730;2022-12-29T14:43:19;52.90;;;30.73;;
5876;SDS011;2964;42.144;24.730;2022-12-29T14:45:52;44.27;;;27.63;;
5876;SDS011;2964;42.144;24.730;2022-12-29T14:48:37;38.90;;;26.17;;
5876;SDS011;2964;42.144;24.730;2022-12-29T14:51:21;38.93;;;26.53;;
5876;SDS011;2964;42.144;24.730;2022-12-29T14:53:58;46.93;;;28.33;;
5876;SDS011;2964;42.144;24.730;2022-12-29T14:56:27;40.87;;;27.03;;
5876;SDS011;2964;42.144;24.730;2022-12-29T14:58:57;50.63;;;29.53;;
5876;SDS011;2964;42.144;24.730;2022-12-29T15:01:31;50.93;;;28.60;;
5876;SDS011;2964;42.144;24.730;2022-12-29T15:04:12;53.07;;;27.90;;
5876;SDS011;2964;42.144;24.730;2022-12-29T15:06:43;54.73;;;29.33;;
5876;SDS011;2964;42.144;24.730;2022-12-29T15:09:12;63.33;;;32.53;;
5876;SDS011;2964;42.144;24.730;2022-12-29T15:11:51;44.93;;;31.57;;
5876;SDS011;2964;42.144;24.730;2022-12-29T15:17:21;60.60;;;34.90;;
5876;SDS011;2964;42.144;24.730;2022-12-29T15:19:50;49.93;;;31.50;;
5876;SDS011;2964;42.144;24.730;2022-12-29T15:22:18;57.40;;;33.73;;